world map with MRU marked

MRU - Airport

This information may not be accurate or current and is not valid for navigation or flight planning. No warranty of fitness for any purpose is made or implied.

flag of Mauritius

Donate via PayPal

Additional information is available on the NEW Great Circle Mapper

Location
City:  Mauritius, Mauritius
Name:Sir Seewoosagur Ramgoolam International Airport
ICAO / IATA:FIMP / MRU

Details
Type:Airport (Aerodrome, Airfield)
Use:Public/Civil
Latitude:20°25'49"S (-20.430234)
Longitude:57°41'01"E (57.683600)
Datum:other
Elevation:186 ft (57 m)
Runways:1
Longest:11056 × 148 ft (3370 × 45 m)

Time
Timezone:UTC+4 (DST+6)
Local Time:

Weather
METAR:FIMP  300100Z 11008KT 9999 SCT017 22/19 Q1020
TAF:FIMP  292345Z 3000/3106 12007KT 9999 SCT018= TAF FIMR 292345Z 3000/3018 13010KT 9999 SCT018

Related Locations
Nearby:
Farthest:MMCD: 11747 mi / 18905 km
Cedros [Isla de Cedros Airport], Isla de Cedros, BCN, MX

Find:

   beyond  
but within

Other Information
Maps:
Links:
Sources:

  


 


Great Circle Mapper   Great Circle Mapper
Great Circle Mapper FAQ   Great Circle Mapper FAQ
  Karl's Home Page
KLSē   KLSē Home
   GC on Facebook
Airlines of the World   Airlines of the World
Donate via PayPal


Copyright © 2004-2015, Karl L. Swartz. All rights reserved.
All trademarks mentioned herein belong to their respective owners.

Please see credits for attribution and copyright information.

Karl Swartz <karl@kls2.com>
  Powered by FreeBSD
Valid HTML 4.01!
Labeled with ICRA
hCard Microformat
Geo Microformat